Time;durP1;ratioP1;P1;durP2;ratioP2;P2;SDS_P1;SDS_P2;PMS_P1;PMS_P2;Temp;Humidity;BMP_temperature;BMP_pressure;BME280_temperature;BME280_humidity;BME280_pressure;Samples;Min_cycle;Max_cycle;Signal;HPM_P1;HPM_P2
2023/03/26 00:01:09;;;;;;;0.63;0.20;;;;;;;;;;5021549;28;20024;-79
2023/03/26 00:03:36;;;;;;;0.30;0.30;;;;;;;;;;5021364;28;20037;-79
2023/03/26 00:06:06;;;;;;;2.08;0.40;;;;;;;;;;5030463;28;20087;-78
2023/03/26 00:08:33;;;;;;;0.40;0.40;;;;;;;;;;5022122;28;20684;-79
2023/03/26 00:10:59;;;;;;;0.57;0.30;;;;;;;;;;5031228;28;20044;-78
2023/03/26 00:13:25;;;;;;;0.35;0.35;;;;;;;;;;5021704;28;20112;-78
2023/03/26 00:15:51;;;;;;;1.23;0.50;;;;;;;;;;5025484;28;20556;-79
2023/03/26 00:18:23;;;;;;;0.32;0.32;;;;;;;;;;5023613;28;20087;-79
2023/03/26 00:20:49;;;;;;;0.22;0.22;;;;;;;;;;5025950;28;20048;-79
2023/03/26 00:23:15;;;;;;;0.30;0.30;;;;;;;;;;5020495;28;20626;-79
2023/03/26 00:25:42;;;;;;;0.38;0.38;;;;;;;;;;5024716;28;20033;-79
2023/03/26 00:28:08;;;;;;;0.45;0.45;;;;;;;;;;5011974;28;20234;-78
2023/03/26 00:30:34;;;;;;;0.40;0.40;;;;;;;;;;5030484;28;20473;-78
2023/03/26 00:33:00;;;;;;;0.30;0.30;;;;;;;;;;5026125;28;20029;-79
2023/03/26 00:35:28;;;;;;;0.30;0.30;;;;;;;;;;5027170;28;20026;-79
2023/03/26 00:37:54;;;;;;;0.20;0.20;;;;;;;;;;5021612;28;20038;-79
2023/03/26 00:40:20;;;;;;;0.50;0.50;;;;;;;;;;5025949;28;20063;-79
2023/03/26 00:42:46;;;;;;;0.80;0.50;;;;;;;;;;5018752;28;20065;-79
2023/03/26 00:45:12;;;;;;;0.45;0.32;;;;;;;;;;5021943;28;20090;-80
2023/03/26 00:47:39;;;;;;;0.30;0.30;;;;;;;;;;5017174;28;20030;-80
2023/03/26 00:50:06;;;;;;;0.35;0.35;;;;;;;;;;5004510;28;20035;-79
2023/03/26 00:52:32;;;;;;;0.17;0.17;;;;;;;;;;5016688;28;20038;-79
2023/03/26 00:54:58;;;;;;;0.35;0.32;;;;;;;;;;5012245;28;20043;-79
2023/03/26 00:57:28;;;;;;;0.50;0.40;;;;;;;;;;5020548;28;20042;-79
2023/03/26 00:59:54;;;;;;;0.30;0.30;;;;;;;;;;5018785;28;20026;-79
2023/03/26 01:02:20;;;;;;;0.32;0.32;;;;;;;;;;5024152;28;20049;-79
2023/03/26 01:04:48;;;;;;;0.55;0.28;;;;;;;;;;5017621;28;20606;-79
2023/03/26 01:07:21;;;;;;;0.43;0.38;;;;;;;;;;5028163;28;20079;-79
2023/03/26 01:09:51;;;;;;;0.50;0.43;;;;;;;;;;5031367;28;20030;-79
2023/03/26 01:12:22;;;;;;;0.50;0.25;;;;;;;;;;5026782;28;20472;-80
2023/03/26 01:14:50;;;;;;;0.20;0.20;;;;;;;;;;5022542;28;20032;-79
2023/03/26 01:17:17;;;;;;;0.20;0.20;;;;;;;;;;5028907;28;20124;-78
2023/03/26 01:19:43;;;;;;;0.35;0.35;;;;;;;;;;5024015;28;20025;-79
2023/03/26 01:22:10;;;;;;;0.30;0.30;;;;;;;;;;5025887;28;20388;-79
2023/03/26 01:24:37;;;;;;;0.30;0.30;;;;;;;;;;5027979;28;20479;-79
2023/03/26 01:27:09;;;;;;;0.25;0.20;;;;;;;;;;5022076;28;20121;-79
2023/03/26 01:29:42;;;;;;;0.22;0.17;;;;;;;;;;5030247;28;20029;-79
2023/03/26 01:32:30;;;;;;;1.67;0.20;;;;;;;;;;5025418;28;20036;-79
2023/03/26 01:34:59;;;;;;;0.20;0.20;;;;;;;;;;5019179;28;20025;-79
2023/03/26 01:37:45;;;;;;;0.40;0.40;;;;;;;;;;5022575;28;20550;-79
2023/03/26 01:40:24;;;;;;;0.35;0.30;;;;;;;;;;5032787;28;20045;-78
2023/03/26 01:42:59;;;;;;;0.22;0.20;;;;;;;;;;5008112;28;20050;-79
2023/03/26 01:45:27;;;;;;;0.22;0.22;;;;;;;;;;5028790;28;20033;-79
2023/03/26 01:47:55;;;;;;;0.20;0.20;;;;;;;;;;5026239;28;20033;-79
2023/03/26 01:50:21;;;;;;;0.38;0.32;;;;;;;;;;5029746;28;20471;-78
2023/03/26 01:52:47;;;;;;;0.10;0.10;;;;;;;;;;5024037;28;20025;-79
2023/03/26 01:55:13;;;;;;;0.30;0.30;;;;;;;;;;5029703;28;20472;-79
2023/03/26 01:57:54;;;;;;;0.30;0.20;;;;;;;;;;5012604;28;20267;-79
2023/03/26 02:00:23;;;;;;;0.10;0.10;;;;;;;;;;5026208;28;20045;-79
2023/03/26 02:03:16;;;;;;;0.10;0.10;;;;;;;;;;5024149;28;20041;-79
2023/03/26 02:05:47;;;;;;;0.20;0.20;;;;;;;;;;5027190;28;20439;-79
2023/03/26 02:08:22;;;;;;;0.30;0.30;;;;;;;;;;5023811;28;20029;-79
2023/03/26 02:10:50;;;;;;;0.13;0.13;;;;;;;;;;5019462;28;20053;-79
2023/03/26 02:13:16;;;;;;;0.77;0.28;;;;;;;;;;5024879;28;20029;-79
2023/03/26 02:15:54;;;;;;;0.20;0.20;;;;;;;;;;5023194;28;20019;-79
2023/03/26 02:18:23;;;;;;;0.22;0.22;;;;;;;;;;5022949;28;20022;-79
2023/03/26 02:20:51;;;;;;;0.17;0.17;;;;;;;;;;5023094;28;20045;-79
2023/03/26 02:23:17;;;;;;;1.23;0.30;;;;;;;;;;5023521;28;20033;-79
2023/03/26 02:25:44;;;;;;;0.40;0.40;;;;;;;;;;5026225;28;20484;-79
2023/03/26 02:28:09;;;;;;;0.85;0.20;;;;;;;;;;5013073;28;20022;-79
2023/03/26 02:30:36;;;;;;;0.30;0.30;;;;;;;;;;5025230;28;20071;-79
2023/03/26 02:33:02;;;;;;;0.50;0.32;;;;;;;;;;5022735;28;20037;-78
2023/03/26 02:35:28;;;;;;;0.30;0.25;;;;;;;;;;5023629;28;20469;-79
2023/03/26 02:37:54;;;;;;;0.38;0.38;;;;;;;;;;5028491;28;20063;-79
2023/03/26 02:40:21;;;;;;;0.20;0.20;;;;;;;;;;5020591;28;20029;-80
2023/03/26 02:42:47;;;;;;;0.10;0.10;;;;;;;;;;5011905;28;20052;-79
2023/03/26 02:45:13;;;;;;;0.20;0.20;;;;;;;;;;5023258;28;20044;-79
2023/03/26 02:47:39;;;;;;;0.25;0.25;;;;;;;;;;5019121;28;20033;-79
2023/03/26 02:50:05;;;;;;;0.30;0.30;;;;;;;;;;5023092;28;20071;-78
2023/03/26 02:52:32;;;;;;;0.13;0.13;;;;;;;;;;5021745;28;20057;-79
2023/03/26 02:54:58;;;;;;;0.28;0.28;;;;;;;;;;5022627;28;20731;-79
2023/03/26 02:57:25;;;;;;;0.10;0.10;;;;;;;;;;5020153;28;20028;-79
2023/03/26 02:59:51;;;;;;;0.20;0.20;;;;;;;;;;5015504;28;20524;-79
2023/03/26 03:02:18;;;;;;;0.20;0.20;;;;;;;;;;5023591;28;20547;-79
2023/03/26 03:04:44;;;;;;;0.50;0.20;;;;;;;;;;5026166;28;20065;-79
2023/03/26 03:07:13;;;;;;;0.52;0.35;;;;;;;;;;5025791;28;20033;-78
2023/03/26 03:09:39;;;;;;;2.00;0.30;;;;;;;;;;5024547;28;20396;-79
2023/03/26 03:12:05;;;;;;;0.10;0.10;;;;;;;;;;5027093;28;20037;-79
2023/03/26 03:14:31;;;;;;;0.13;0.13;;;;;;;;;;5026311;28;20033;-80
2023/03/26 03:16:57;;;;;;;0.32;0.10;;;;;;;;;;5019624;28;20025;-79
2023/03/26 03:19:23;;;;;;;2.75;0.20;;;;;;;;;;5018745;28;20033;-79
2023/03/26 03:21:49;;;;;;;0.25;0.25;;;;;;;;;;5026604;28;20052;-79
2023/03/26 03:24:17;;;;;;;0.22;0.22;;;;;;;;;;5020048;28;20036;-79
2023/03/26 03:26:44;;;;;;;0.20;0.20;;;;;;;;;;5018202;28;20076;-78
2023/03/26 03:29:11;;;;;;;1.38;0.40;;;;;;;;;;5019514;28;20021;-78
2023/03/26 03:31:37;;;;;;;0.20;0.20;;;;;;;;;;5020166;28;20120;-78
2023/03/26 03:34:03;;;;;;;0.20;0.20;;;;;;;;;;5024049;28;20500;-79
2023/03/26 03:36:31;;;;;;;0.17;0.17;;;;;;;;;;5022639;28;20028;-79
2023/03/26 03:39:01;;;;;;;0.20;0.20;;;;;;;;;;5024380;28;20025;-79
2023/03/26 03:41:27;;;;;;;0.20;0.20;;;;;;;;;;5020704;28;20464;-77
2023/03/26 03:43:53;;;;;;;2.15;0.28;;;;;;;;;;5024789;28;20076;-78
2023/03/26 03:46:19;;;;;;;0.30;0.30;;;;;;;;;;5026998;28;20029;-78
2023/03/26 03:48:48;;;;;;;0.65;0.32;;;;;;;;;;5021815;28;20030;-78
2023/03/26 03:51:14;;;;;;;0.35;0.35;;;;;;;;;;5017921;28;20388;-79
2023/03/26 03:53:40;;;;;;;0.38;0.20;;;;;;;;;;5014525;28;20029;-80
2023/03/26 03:56:08;;;;;;;0.13;0.13;;;;;;;;;;5014015;28;20389;-79
2023/03/26 03:58:35;;;;;;;0.30;0.30;;;;;;;;;;5024013;28;20029;-79
2023/03/26 04:01:01;;;;;;;0.30;0.30;;;;;;;;;;5019220;28;20083;-80
2023/03/26 04:03:28;;;;;;;0.32;0.30;;;;;;;;;;5020031;28;20384;-79
2023/03/26 04:05:54;;;;;;;2.28;0.50;;;;;;;;;;5015000;28;20038;-80
2023/03/26 04:08:24;;;;;;;0.30;0.30;;;;;;;;;;5018935;28;20334;-79
2023/03/26 04:10:53;;;;;;;0.20;0.20;;;;;;;;;;5021683;28;20025;-78
2023/03/26 04:13:19;;;;;;;0.22;0.22;;;;;;;;;;5020491;28;20037;-78
2023/03/26 04:15:45;;;;;;;0.30;0.30;;;;;;;;;;5021124;28;20022;-79
2023/03/26 04:18:11;;;;;;;2.45;0.40;;;;;;;;;;5022488;28;20026;-81
2023/03/26 04:20:40;;;;;;;0.43;0.40;;;;;;;;;;5024171;28;20040;-81
2023/03/26 04:23:06;;;;;;;0.43;0.43;;;;;;;;;;5022807;28;20034;-80
2023/03/26 04:25:35;;;;;;;0.20;0.20;;;;;;;;;;5021244;28;20049;-78
2023/03/26 04:28:05;;;;;;;0.20;0.20;;;;;;;;;;5020443;28;20516;-79
2023/03/26 04:30:32;;;;;;;0.77;0.43;;;;;;;;;;5020505;28;20100;-79
2023/03/26 04:32:59;;;;;;;0.17;0.17;;;;;;;;;;5010264;28;20430;-85
2023/03/26 04:35:25;;;;;;;0.47;0.47;;;;;;;;;;5018400;28;20033;-76
2023/03/26 04:37:51;;;;;;;0.22;0.22;;;;;;;;;;5008967;28;20489;-75
2023/03/26 04:40:19;;;;;;;0.20;0.20;;;;;;;;;;5030276;28;20487;-75
2023/03/26 04:42:45;;;;;;;2.80;0.68;;;;;;;;;;5018927;28;20134;-75
2023/03/26 04:45:13;;;;;;;0.57;0.47;;;;;;;;;;5023368;28;20026;-83
2023/03/26 04:47:39;;;;;;;0.40;0.40;;;;;;;;;;5018967;28;20085;-81
2023/03/26 04:50:06;;;;;;;1.75;0.35;;;;;;;;;;5022316;28;20644;-81
2023/03/26 04:52:32;;;;;;;0.40;0.40;;;;;;;;;;5025247;28;20035;-82
2023/03/26 04:54:59;;;;;;;2.28;0.38;;;;;;;;;;5026218;28;20053;-82
2023/03/26 04:57:27;;;;;;;0.30;0.30;;;;;;;;;;5021109;28;20042;-82
2023/03/26 04:59:53;;;;;;;0.30;0.30;;;;;;;;;;5029001;28;20112;-82
2023/03/26 05:02:19;;;;;;;0.38;0.38;;;;;;;;;;5028578;28;20121;-83
2023/03/26 05:04:45;;;;;;;0.20;0.20;;;;;;;;;;5022694;28;20025;-82
2023/03/26 05:07:15;;;;;;;0.20;0.20;;;;;;;;;;5011145;28;20386;-82
2023/03/26 05:09:41;;;;;;;1.02;0.57;;;;;;;;;;5026027;28;20120;-82
2023/03/26 05:12:07;;;;;;;0.52;0.40;;;;;;;;;;5028418;28;20175;-82
2023/03/26 05:14:35;;;;;;;0.20;0.20;;;;;;;;;;5024186;28;20034;-82
2023/03/26 05:17:04;;;;;;;0.30;0.30;;;;;;;;;;5024292;28;20414;-82
2023/03/26 05:19:30;;;;;;;0.22;0.22;;;;;;;;;;5029228;28;20128;-82
2023/03/26 05:21:56;;;;;;;0.20;0.20;;;;;;;;;;5027849;28;20030;-83
2023/03/26 05:24:23;;;;;;;0.32;0.32;;;;;;;;;;5027888;28;20030;-84
2023/03/26 05:26:49;;;;;;;1.40;0.40;;;;;;;;;;5018827;28;20036;-86
2023/03/26 05:29:16;;;;;;;0.20;0.20;;;;;;;;;;5030419;28;20033;-83
2023/03/26 05:31:43;;;;;;;0.50;0.50;;;;;;;;;;5019206;28;20025;-82
2023/03/26 05:34:09;;;;;;;0.30;0.30;;;;;;;;;;5024774;28;20496;-82
2023/03/26 05:36:35;;;;;;;0.22;0.22;;;;;;;;;;5013820;28;20041;-82
2023/03/26 05:39:02;;;;;;;0.50;0.30;;;;;;;;;;5035741;28;20034;-80
2023/03/26 05:41:28;;;;;;;0.10;0.10;;;;;;;;;;5021823;28;20390;-80
2023/03/26 05:43:54;;;;;;;0.52;0.40;;;;;;;;;;5023911;28;20056;-82
2023/03/26 05:46:21;;;;;;;0.65;0.32;;;;;;;;;;5022585;28;20121;-82
2023/03/26 05:48:47;;;;;;;0.28;0.28;;;;;;;;;;5027381;28;20476;-82
2023/03/26 05:51:14;;;;;;;0.30;0.30;;;;;;;;;;5025988;28;20036;-82
2023/03/26 05:53:40;;;;;;;0.40;0.40;;;;;;;;;;5027414;28;20045;-81
2023/03/26 05:56:06;;;;;;;0.20;0.20;;;;;;;;;;5016847;28;20077;-82
2023/03/26 05:58:33;;;;;;;0.40;0.40;;;;;;;;;;5023489;28;20642;-84
2023/03/26 06:01:01;;;;;;;0.20;0.20;;;;;;;;;;5027906;28;20029;-82
2023/03/26 06:03:27;;;;;;;0.20;0.20;;;;;;;;;;5020103;28;20037;-83
2023/03/26 06:05:53;;;;;;;0.10;0.10;;;;;;;;;;5013154;28;20515;-82
2023/03/26 06:08:20;;;;;;;0.55;0.20;;;;;;;;;;5019921;28;20025;-83
2023/03/26 06:10:46;;;;;;;0.20;0.20;;;;;;;;;;5008983;28;20365;-83
2023/03/26 06:13:12;;;;;;;0.40;0.40;;;;;;;;;;5019000;28;20033;-82
2023/03/26 06:15:38;;;;;;;0.20;0.20;;;;;;;;;;5022817;28;20022;-83
2023/03/26 06:18:04;;;;;;;0.20;0.20;;;;;;;;;;5025338;28;20395;-83
2023/03/26 06:20:30;;;;;;;0.30;0.30;;;;;;;;;;5029277;28;20504;-83
2023/03/26 06:22:56;;;;;;;0.40;0.30;;;;;;;;;;5018335;28;20037;-82
2023/03/26 06:25:22;;;;;;;0.35;0.20;;;;;;;;;;5022775;28;20029;-83
2023/03/26 06:27:48;;;;;;;0.20;0.20;;;;;;;;;;5026976;28;20108;-83
2023/03/26 06:30:14;;;;;;;0.20;0.20;;;;;;;;;;5026600;28;20030;-82
2023/03/26 06:32:40;;;;;;;0.30;0.30;;;;;;;;;;5009385;28;20451;-82
2023/03/26 06:35:06;;;;;;;0.28;0.28;;;;;;;;;;5028634;28;20030;-83
2023/03/26 06:37:32;;;;;;;0.13;0.13;;;;;;;;;;5029442;28;20037;-83
2023/03/26 06:39:58;;;;;;;0.20;0.20;;;;;;;;;;5029165;28;20025;-83
2023/03/26 06:42:24;;;;;;;0.30;0.30;;;;;;;;;;5028586;28;20045;-82
2023/03/26 06:44:50;;;;;;;0.30;0.30;;;;;;;;;;5014651;28;20033;-82
2023/03/26 06:47:16;;;;;;;0.20;0.20;;;;;;;;;;5017102;28;20044;-82
2023/03/26 06:49:42;;;;;;;0.20;0.20;;;;;;;;;;5026244;28;20022;-82
2023/03/26 06:52:08;;;;;;;0.20;0.20;;;;;;;;;;5020946;28;20044;-83
2023/03/26 06:54:34;;;;;;;0.47;0.35;;;;;;;;;;5034776;28;20503;-83
2023/03/26 06:57:00;;;;;;;0.10;0.10;;;;;;;;;;5027143;28;20033;-82
2023/03/26 06:59:26;;;;;;;0.20;0.20;;;;;;;;;;5026653;28;20487;-83
2023/03/26 07:01:52;;;;;;;0.85;0.20;;;;;;;;;;5025071;28;20105;-83
2023/03/26 07:04:18;;;;;;;0.65;0.43;;;;;;;;;;5028262;28;20116;-83
2023/03/26 07:06:44;;;;;;;0.30;0.30;;;;;;;;;;5025206;28;20099;-83
2023/03/26 07:09:11;;;;;;;0.43;0.30;;;;;;;;;;5023380;28;20025;-83
2023/03/26 07:11:37;;;;;;;0.20;0.20;;;;;;;;;;5012383;28;20674;-83
2023/03/26 07:14:03;;;;;;;1.58;0.20;;;;;;;;;;5025699;28;20121;-83
2023/03/26 07:16:29;;;;;;;0.88;0.50;;;;;;;;;;5028168;28;20032;-82
2023/03/26 07:18:55;;;;;;;0.28;0.20;;;;;;;;;;5027948;28;20388;-83
2023/03/26 07:21:21;;;;;;;0.22;0.22;;;;;;;;;;5022632;28;20036;-82
2023/03/26 07:23:48;;;;;;;0.20;0.20;;;;;;;;;;5026435;28;20516;-82
2023/03/26 07:26:25;;;;;;;0.10;0.10;;;;;;;;;;5013698;28;20033;-82
2023/03/26 07:28:57;;;;;;;1.27;0.38;;;;;;;;;;5025255;28;20491;-82
2023/03/26 07:31:23;;;;;;;;;;;;;;;;;;5019454;28;20491;-82
2023/03/26 07:34:00;;;;;;;0.40;0.30;;;;;;;;;;5018415;28;19945;-82
2023/03/26 07:36:47;;;;;;;0.10;0.10;;;;;;;;;;5020459;28;20436;-82
2023/03/26 07:39:23;;;;;;;0.30;0.30;;;;;;;;;;5025631;28;20061;-82
2023/03/26 07:41:53;;;;;;;0.77;0.20;;;;;;;;;;5019240;28;20025;-82
2023/03/26 07:44:22;;;;;;;0.20;0.20;;;;;;;;;;5015841;28;20041;-82
2023/03/26 07:46:52;;;;;;;0.30;0.30;;;;;;;;;;5023926;28;20383;-82
2023/03/26 07:49:19;;;;;;;0.30;0.30;;;;;;;;;;5023912;28;20736;-82
2023/03/26 07:51:45;;;;;;;0.30;0.20;;;;;;;;;;5019249;28;20017;-82
2023/03/26 07:54:11;;;;;;;0.40;0.40;;;;;;;;;;5015579;28;20038;-81
2023/03/26 07:56:41;;;;;;;0.28;0.28;;;;;;;;;;5029640;28;20082;-82
2023/03/26 07:59:13;;;;;;;0.22;0.22;;;;;;;;;;5018785;28;20055;-80
2023/03/26 08:01:58;;;;;;;3.30;0.30;;;;;;;;;;5023868;28;20380;-78
2023/03/26 08:04:24;;;;;;;0.47;0.40;;;;;;;;;;5028295;28;20025;-80
2023/03/26 08:06:55;;;;;;;0.30;0.30;;;;;;;;;;5024826;28;20021;-79
2023/03/26 08:09:32;;;;;;;0.20;0.20;;;;;;;;;;5034878;28;20032;-79
2023/03/26 08:12:06;;;;;;;0.57;0.30;;;;;;;;;;5027171;28;20395;-80
2023/03/26 08:14:52;;;;;;;0.10;0.10;;;;;;;;;;5026041;28;20029;-79
2023/03/26 08:17:33;;;;;;;0.28;0.10;;;;;;;;;;5020332;28;20082;-79
2023/03/26 08:20:05;;;;;;;0.30;0.20;;;;;;;;;;5023334;28;20110;-79
2023/03/26 08:22:35;;;;;;;0.20;0.20;;;;;;;;;;5022869;28;20409;-83
2023/03/26 08:25:01;;;;;;;0.45;0.45;;;;;;;;;;5026137;28;20056;-89
2023/03/26 08:27:36;;;;;;;0.45;0.30;;;;;;;;;;5019889;28;20088;-85
2023/03/26 08:30:16;;;;;;;0.38;0.20;;;;;;;;;;5016926;28;20030;-86
2023/03/26 08:32:48;;;;;;;0.35;0.30;;;;;;;;;;5028964;28;20075;-83
2023/03/26 08:35:14;;;;;;;0.55;0.40;;;;;;;;;;5027359;28;20036;-82
2023/03/26 08:37:40;;;;;;;0.35;0.28;;;;;;;;;;5028763;28;20033;-87
2023/03/26 08:40:07;;;;;;;0.57;0.25;;;;;;;;;;5021285;28;20021;-90
2023/03/26 08:42:56;;;;;;;2.88;0.38;;;;;;;;;;5024926;28;20061;-91
2023/03/26 08:45:30;;;;;;;0.20;0.20;;;;;;;;;;5032538;28;20515;-95
2023/03/26 08:48:00;;;;;;;0.93;0.40;;;;;;;;;;5030315;28;20045;-81
2023/03/26 08:50:36;;;;;;;1.38;0.28;;;;;;;;;;5023547;28;20053;-76
2023/03/26 08:53:13;;;;;;;0.47;0.45;;;;;;;;;;5032847;28;20592;-92
2023/03/26 08:55:51;;;;;;;0.30;0.30;;;;;;;;;;5023676;28;20477;-89
2023/03/26 08:58:28;;;;;;;1.27;0.70;;;;;;;;;;5022714;28;20361;-91
2023/03/26 09:01:06;;;;;;;0.57;0.20;;;;;;;;;;5030409;28;20044;-88
2023/03/26 09:03:44;;;;;;;0.30;0.30;;;;;;;;;;5026773;28;20120;-84
2023/03/26 09:06:36;;;;;;;0.22;0.22;;;;;;;;;;5016789;28;20730;-77
2023/03/26 09:09:10;;;;;;;0.32;0.30;;;;;;;;;;5036749;28;20499;-80
2023/03/26 09:11:50;;;;;;;1.75;0.30;;;;;;;;;;5026848;28;20483;-81
2023/03/26 09:14:22;;;;;;;0.30;0.30;;;;;;;;;;5025588;28;20512;-81
2023/03/26 09:16:49;;;;;;;0.50;0.38;;;;;;;;;;5018590;28;20429;-84
2023/03/26 09:19:36;;;;;;;0.88;0.47;;;;;;;;;;5027199;28;20032;-77
2023/03/26 09:22:11;;;;;;;0.20;0.20;;;;;;;;;;5021938;28;20024;-86
2023/03/26 09:24:56;;;;;;;0.25;0.20;;;;;;;;;;5021836;28;20116;-82
2023/03/26 09:27:35;;;;;;;0.32;0.32;;;;;;;;;;5026546;28;20516;-83
2023/03/26 09:30:07;;;;;;;0.65;0.40;;;;;;;;;;5029935;28;20064;-89
2023/03/26 09:32:42;;;;;;;0.30;0.30;;;;;;;;;;5026543;28;20495;-79
2023/03/26 09:35:11;;;;;;;0.50;0.50;;;;;;;;;;5024167;28;20639;-77
2023/03/26 09:37:54;;;;;;;1.80;0.47;;;;;;;;;;5022329;28;20080;-74
2023/03/26 09:40:22;;;;;;;0.77;0.32;;;;;;;;;;5020815;28;20484;-74
2023/03/26 09:43:15;;;;;;;0.82;0.40;;;;;;;;;;5027294;28;20075;-75
2023/03/26 09:45:49;;;;;;;0.40;0.40;;;;;;;;;;4994434;28;20423;-74
2023/03/26 09:48:17;;;;;;;0.65;0.30;;;;;;;;;;5018687;28;20017;-75
2023/03/26 09:50:43;;;;;;;0.22;0.22;;;;;;;;;;5028831;28;20108;-74
2023/03/26 09:53:19;;;;;;;0.13;0.13;;;;;;;;;;5024405;28;20029;-74
2023/03/26 09:56:04;;;;;;;0.57;0.30;;;;;;;;;;5011873;28;20013;-75
2023/03/26 09:58:41;;;;;;;0.30;0.30;;;;;;;;;;5019678;28;20124;-74
2023/03/26 10:01:12;;;;;;;0.65;0.63;;;;;;;;;;5023590;28;20385;-75
2023/03/26 10:03:43;;;;;;;0.57;0.45;;;;;;;;;;5024996;28;20124;-74
2023/03/26 10:06:41;;;;;;;0.20;0.20;;;;;;;;;;5027274;28;20603;-74
2023/03/26 10:09:16;;;;;;;0.20;0.20;;;;;;;;;;4963330;28;20057;-74
2023/03/26 10:11:42;;;;;;;0.30;0.30;;;;;;;;;;5029931;28;20550;-74
2023/03/26 10:14:11;;;;;;;0.30;0.30;;;;;;;;;;5030118;28;20052;-75
2023/03/26 10:16:56;;;;;;;0.50;0.40;;;;;;;;;;5029988;28;20041;-74
2023/03/26 10:19:28;;;;;;;0.30;0.30;;;;;;;;;;5027046;28;20128;-74
2023/03/26 10:21:57;;;;;;;0.45;0.40;;;;;;;;;;5028473;28;20066;-74
2023/03/26 10:24:37;;;;;;;0.77;0.28;;;;;;;;;;5022430;28;20064;-74
2023/03/26 10:27:23;;;;;;;0.50;0.40;;;;;;;;;;5021801;28;20036;-74
2023/03/26 10:30:05;;;;;;;1.02;0.57;;;;;;;;;;5019722;28;20033;-75
2023/03/26 10:32:43;;;;;;;0.88;0.32;;;;;;;;;;5027091;28;20095;-76
2023/03/26 10:35:18;;;;;;;0.22;0.22;;;;;;;;;;5013190;28;20432;-74
2023/03/26 10:37:59;;;;;;;0.60;0.60;;;;;;;;;;5020990;28;20377;-74
2023/03/26 10:40:41;;;;;;;0.43;0.43;;;;;;;;;;5024359;28;20025;-74
2023/03/26 10:43:07;;;;;;;1.08;0.40;;;;;;;;;;5029069;28;20454;-74
2023/03/26 10:45:59;;;;;;;0.50;0.50;;;;;;;;;;5027067;28;20029;-74
2023/03/26 10:48:31;;;;;;;0.30;0.30;;;;;;;;;;4984353;28;20051;-74
2023/03/26 10:51:15;;;;;;;3.30;0.45;;;;;;;;;;5025787;28;20056;-74
2023/03/26 10:53:50;;;;;;;0.40;0.40;;;;;;;;;;5010590;28;20078;-73
2023/03/26 10:56:37;;;;;;;0.75;0.68;;;;;;;;;;5027809;28;20029;-75
2023/03/26 10:59:07;;;;;;;0.77;0.50;;;;;;;;;;5023154;28;20472;-73
2023/03/26 11:01:42;;;;;;;3.17;0.40;;;;;;;;;;5024248;28;20034;-74
2023/03/26 11:04:16;;;;;;;0.70;0.60;;;;;;;;;;5025003;28;20068;-74
2023/03/26 11:07:03;;;;;;;0.35;0.35;;;;;;;;;;5025971;28;20030;-74
2023/03/26 11:09:29;;;;;;;0.95;0.35;;;;;;;;;;5020250;28;20038;-74
2023/03/26 11:12:07;;;;;;;1.08;0.60;;;;;;;;;;5022287;28;20455;-74
2023/03/26 11:14:38;;;;;;;1.00;0.65;;;;;;;;;;5025693;28;20017;-74
2023/03/26 11:17:23;;;;;;;0.28;0.22;;;;;;;;;;5019350;28;20041;-75
2023/03/26 11:19:55;;;;;;;0.47;0.40;;;;;;;;;;5026727;28;20040;-75
2023/03/26 11:22:33;;;;;;;0.35;0.35;;;;;;;;;;5022933;28;20215;-74
2023/03/26 11:25:06;;;;;;;1.40;0.30;;;;;;;;;;5018165;28;20890;-74
2023/03/26 11:27:32;;;;;;;0.82;0.50;;;;;;;;;;5023172;28;20501;-74
2023/03/26 11:30:01;;;;;;;0.40;0.40;;;;;;;;;;5009340;28;20029;-74
2023/03/26 11:32:30;;;;;;;2.42;1.15;;;;;;;;;;5028505;28;20117;-74
2023/03/26 11:35:07;;;;;;;0.88;0.40;;;;;;;;;;5026370;28;20030;-74
2023/03/26 11:37:36;;;;;;;0.40;0.40;;;;;;;;;;5027589;28;20025;-74
2023/03/26 11:40:06;;;;;;;1.60;0.45;;;;;;;;;;5022607;28;20034;-74
2023/03/26 11:42:33;;;;;;;0.55;0.45;;;;;;;;;;5024511;28;20511;-75
2023/03/26 11:45:00;;;;;;;0.85;0.35;;;;;;;;;;5021959;28;20041;-74
2023/03/26 11:47:31;;;;;;;0.60;0.30;;;;;;;;;;5023722;28;20128;-74
2023/03/26 11:49:58;;;;;;;1.40;0.50;;;;;;;;;;5026343;28;20027;-74
2023/03/26 11:52:25;;;;;;;0.50;0.47;;;;;;;;;;5023328;28;20046;-74
2023/03/26 11:54:51;;;;;;;1.25;0.40;;;;;;;;;;5025801;28;20033;-75
2023/03/26 11:57:25;;;;;;;0.80;0.50;;;;;;;;;;5023734;28;20467;-75
2023/03/26 11:59:54;;;;;;;0.63;0.40;;;;;;;;;;5022998;28;20041;-74
2023/03/26 12:02:24;;;;;;;0.35;0.35;;;;;;;;;;5026848;28;20088;-74
2023/03/26 12:04:54;;;;;;;0.40;0.40;;;;;;;;;;5016983;28;20021;-74
2023/03/26 12:07:19;;;;;;;2.63;0.50;;;;;;;;;;5013941;28;20338;-75
2023/03/26 12:09:59;;;;;;;6.20;0.50;;;;;;;;;;5023954;28;20560;-75
2023/03/26 12:12:38;;;;;;;1.23;1.00;;;;;;;;;;5019737;28;20037;-75
2023/03/26 12:15:04;;;;;;;0.40;0.38;;;;;;;;;;5012368;28;20022;-75
2023/03/26 12:17:32;;;;;;;2.35;0.50;;;;;;;;;;5020746;28;20080;-75
2023/03/26 12:19:59;;;;;;;0.57;0.30;;;;;;;;;;5021321;28;20087;-75
2023/03/26 12:22:36;;;;;;;1.27;1.17;;;;;;;;;;5023944;28;20039;-75
2023/03/26 12:25:15;;;;;;;0.30;0.25;;;;;;;;;;5026638;28;20029;-75
2023/03/26 12:28:04;;;;;;;0.88;0.70;;;;;;;;;;5012360;28;20481;-75
2023/03/26 12:30:32;;;;;;;0.60;0.50;;;;;;;;;;5001228;28;20107;-75
2023/03/26 12:33:03;;;;;;;0.45;0.45;;;;;;;;;;5020959;28;20156;-75
2023/03/26 12:35:30;;;;;;;0.68;0.43;;;;;;;;;;5025467;28;20061;-74
2023/03/26 12:38:13;;;;;;;0.55;0.45;;;;;;;;;;5023512;28;20396;-75
2023/03/26 12:40:41;;;;;;;0.47;0.47;;;;;;;;;;5024075;28;20091;-75
2023/03/26 12:43:20;;;;;;;0.60;0.50;;;;;;;;;;5023696;28;20061;-75
2023/03/26 12:45:49;;;;;;;0.60;0.60;;;;;;;;;;5026359;28;20504;-75
2023/03/26 12:48:16;;;;;;;0.25;0.25;;;;;;;;;;5015192;28;20022;-75
2023/03/26 12:50:51;;;;;;;0.40;0.40;;;;;;;;;;5024932;28;20029;-75
2023/03/26 12:53:32;;;;;;;0.43;0.43;;;;;;;;;;5026589;28;20025;-74
2023/03/26 12:56:09;;;;;;;0.55;0.55;;;;;;;;;;5026097;28;20033;-74
2023/03/26 12:58:50;;;;;;;0.63;0.45;;;;;;;;;;5027336;28;20037;-74
2023/03/26 13:01:32;;;;;;;2.88;0.55;;;;;;;;;;5024478;28;20036;-74
2023/03/26 13:04:12;;;;;;;14.93;0.77;;;;;;;;;;5025573;28;20125;-85
2023/03/26 13:06:54;;;;;;;0.55;0.55;;;;;;;;;;5026859;28;20029;-79
2023/03/26 13:09:26;;;;;;;0.90;0.35;;;;;;;;;;5019909;28;20488;-83
2023/03/26 13:11:59;;;;;;;0.40;0.40;;;;;;;;;;5025085;28;20071;-84
2023/03/26 13:14:34;;;;;;;1.95;0.57;;;;;;;;;;5017561;28;20483;-77
2023/03/26 13:17:15;;;;;;;0.45;0.45;;;;;;;;;;5011519;28;20442;-73
2023/03/26 13:19:41;;;;;;;;;;;;;;;;;;5025654;28;20048;-74
2023/03/26 13:22:17;;;;;;;0.47;0.43;;;;;;;;;;5022820;28;20372;-74
2023/03/26 13:24:43;;;;;;;0.30;0.30;;;;;;;;;;5023841;28;20014;-82
2023/03/26 13:27:28;;;;;;;0.90;0.38;;;;;;;;;;5026769;28;20024;-80
2023/03/26 13:30:01;;;;;;;3.85;0.32;;;;;;;;;;5020584;28;20128;-88
2023/03/26 13:32:37;;;;;;;0.35;0.30;;;;;;;;;;5018215;28;20426;-78
2023/03/26 13:35:23;;;;;;;0.30;0.30;;;;;;;;;;5021147;28;20104;-79
2023/03/26 13:37:49;;;;;;;0.60;0.60;;;;;;;;;;5018202;28;20496;-74
2023/03/26 13:40:37;;;;;;;0.30;0.30;;;;;;;;;;5023852;28;20033;-80
2023/03/26 13:43:28;;;;;;;0.50;0.40;;;;;;;;;;5010077;28;20083;-79
2023/03/26 13:46:12;;;;;;;0.38;0.38;;;;;;;;;;5026869;28;20045;-77
2023/03/26 13:48:53;;;;;;;0.45;0.35;;;;;;;;;;5020333;28;20029;-80
2023/03/26 13:51:28;;;;;;;0.63;0.45;;;;;;;;;;5021248;28;20044;-80
2023/03/26 13:54:00;;;;;;;0.28;0.28;;;;;;;;;;5020960;28;20040;-78
2023/03/26 13:56:33;;;;;;;0.43;0.43;;;;;;;;;;5023670;28;20036;-76
2023/03/26 13:59:01;;;;;;;0.35;0.35;;;;;;;;;;5020247;28;20029;-79
2023/03/26 14:01:33;;;;;;;0.55;0.40;;;;;;;;;;5013987;28;20045;-80
2023/03/26 14:04:20;;;;;;;0.30;0.28;;;;;;;;;;5014406;28;20398;-79
2023/03/26 14:06:46;;;;;;;0.35;0.30;;;;;;;;;;5020230;28;20033;-87
2023/03/26 14:09:35;;;;;;;0.65;0.30;;;;;;;;;;5017274;28;20555;-87
2023/03/26 14:12:15;;;;;;;0.65;0.55;;;;;;;;;;5027275;28;20041;-81
2023/03/26 14:14:47;;;;;;;1.55;0.63;;;;;;;;;;5024943;28;20045;-82
2023/03/26 14:17:20;;;;;;;0.55;0.30;;;;;;;;;;5011543;28;20054;-83
2023/03/26 14:19:46;;;;;;;0.82;0.38;;;;;;;;;;5022375;28;20025;-83
2023/03/26 14:22:19;;;;;;;1.75;0.65;;;;;;;;;;5023239;28;20029;-82
2023/03/26 14:25:09;;;;;;;0.43;0.30;;;;;;;;;;5023236;28;20437;-83
2023/03/26 14:27:56;;;;;;;0.80;0.80;;;;;;;;;;5019705;28;20112;-85
2023/03/26 14:30:27;;;;;;;0.35;0.35;;;;;;;;;;5006990;28;20034;-80
2023/03/26 14:33:06;;;;;;;0.40;0.40;;;;;;;;;;5019002;28;20042;-79
2023/03/26 14:35:36;;;;;;;0.30;0.30;;;;;;;;;;5021376;28;20140;-80
2023/03/26 14:38:12;;;;;;;0.28;0.28;;;;;;;;;;5020211;28;20029;-82
2023/03/26 14:40:47;;;;;;;1.25;0.40;;;;;;;;;;5020961;28;20484;-81
2023/03/26 14:43:32;;;;;;;0.30;0.30;;;;;;;;;;5022675;28;20059;-88
2023/03/26 14:46:10;;;;;;;0.45;0.40;;;;;;;;;;5015429;28;20038;-86
2023/03/26 14:48:36;;;;;;;0.40;0.30;;;;;;;;;;5015930;28;20136;-76
2023/03/26 14:51:02;;;;;;;0.22;0.22;;;;;;;;;;5022448;28;20467;-78
2023/03/26 14:53:33;;;;;;;0.68;0.40;;;;;;;;;;5011132;28;20033;-81
2023/03/26 14:56:07;;;;;;;3.00;0.40;;;;;;;;;;5022664;28;20029;-80
2023/03/26 14:58:46;;;;;;;0.28;0.28;;;;;;;;;;5022110;28;20033;-80
2023/03/26 15:01:29;;;;;;;1.00;0.47;;;;;;;;;;5011166;28;20527;-78
2023/03/26 15:04:14;;;;;;;0.82;0.40;;;;;;;;;;5019224;28;20029;-80
2023/03/26 15:07:05;;;;;;;0.70;0.52;;;;;;;;;;5020520;28;20029;-79